sim
Sign-in with your pilot id or email,
or register
Callsign
Passwort

Schedule Details

Flight Number: OEO4890
Departure: Erfurt Airport (EDDE) at 04:30
Arrival: Fuerteventura Airport (GCFV) at 09:25

Weather Information
Getting current METAR information for EDDE 211720Z 34003KT CAVOK 21/06 Q1027 NOSIG
Getting current METAR information for GCFV 211730Z 02017KT 350V050 CAVOK 27/18 Q1013

Schedule Frequency

Route Map